createdAt,value
2019-02-25T00:01:33.344Z,91.80
2019-02-25T00:04:04.232Z,91.80
2019-02-25T00:06:35.577Z,91.80
2019-02-25T00:09:07.259Z,91.70
2019-02-25T00:11:38.755Z,91.60
2019-02-25T00:14:09.422Z,91.70
2019-02-25T00:16:40.766Z,91.40
2019-02-25T00:19:12.432Z,91.70
2019-02-25T00:21:43.109Z,92.00
2019-02-25T00:24:13.826Z,92.20
2019-02-25T00:26:44.549Z,92.20
2019-02-25T00:29:15.197Z,92.00
2019-02-25T00:31:45.913Z,91.90
2019-02-25T00:34:16.688Z,92.10
2019-02-25T00:36:47.422Z,92.50
2019-02-25T00:39:18.224Z,92.60
2019-02-25T00:41:48.985Z,92.70
2019-02-25T00:44:19.726Z,92.70
2019-02-25T00:46:50.485Z,92.50
2019-02-25T00:49:21.120Z,92.60
2019-02-25T00:51:52.773Z,93.00
2019-02-25T00:54:23.437Z,93.00
2019-02-25T00:56:54.129Z,92.70
2019-02-25T00:59:24.789Z,92.70
2019-02-25T01:01:56.968Z,92.90
2019-02-25T01:04:27.685Z,92.90
2019-02-25T01:06:58.592Z,93.10
2019-02-25T01:09:29.377Z,93.50
2019-02-25T01:12:00.112Z,93.50
2019-02-25T01:14:30.806Z,93.50
2019-02-25T01:17:01.574Z,93.50
2019-02-25T01:19:32.257Z,93.40
2019-02-25T01:22:03.023Z,93.20
2019-02-25T01:24:33.768Z,93.10
2019-02-25T01:27:04.510Z,93.40
2019-02-25T01:29:35.259Z,93.50
2019-02-25T01:32:06.045Z,93.70
2019-02-25T01:34:39.810Z,93.60
2019-02-25T01:37:10.701Z,93.70
2019-02-25T01:39:41.489Z,93.70
2019-02-25T01:42:13.754Z,93.60
2019-02-25T01:44:44.486Z,93.50
2019-02-25T01:47:15.227Z,93.60
2019-02-25T01:49:45.938Z,93.80
2019-02-25T02:11:03.511Z,93.60
2019-02-25T02:13:34.272Z,93.10
2019-02-25T02:16:05.073Z,93.10
2019-02-25T02:18:36.067Z,93.10
2019-02-25T02:21:07.068Z,93.40
2019-02-25T02:23:37.813Z,93.60
2019-02-25T02:26:08.618Z,93.50
2019-02-25T02:28:39.392Z,93.70
2019-02-25T02:31:10.224Z,93.70
2019-02-25T02:33:40.985Z,93.70
2019-02-25T02:36:11.909Z,93.60
2019-02-25T02:38:42.790Z,93.40
2019-02-25T02:41:13.573Z,93.20
2019-02-25T02:43:44.251Z,93.40
2019-02-25T02:46:50.088Z,93.60
2019-02-25T02:49:20.818Z,93.40
2019-02-25T02:51:51.585Z,93.50
2019-02-25T02:54:22.321Z,93.50
2019-02-25T02:56:53.099Z,93.70
2019-02-25T02:59:23.837Z,93.40
2019-02-25T03:01:54.567Z,93.60
2019-02-25T03:04:26.279Z,93.60
2019-02-25T03:06:58.498Z,93.60
2019-02-25T03:09:29.193Z,93.50
2019-02-25T03:11:59.944Z,93.40
2019-02-25T03:14:30.729Z,93.40
2019-02-25T03:17:01.394Z,93.40
2019-02-25T03:19:32.135Z,94.00
2019-02-25T03:22:02.854Z,94.10
2019-02-25T03:24:33.537Z,94.40
2019-02-25T03:27:04.276Z,94.30
2019-02-25T03:29:34.980Z,94.10
2019-02-25T03:32:05.895Z,94.20
2019-02-25T03:34:36.710Z,94.30
2019-02-25T03:37:07.619Z,94.20
2019-02-25T03:39:38.526Z,94.00
2019-02-25T03:42:09.367Z,93.90
2019-02-25T03:44:40.058Z,94.00
2019-02-25T03:47:10.993Z,94.00
2019-02-25T03:49:41.746Z,93.80
2019-02-25T03:52:12.491Z,93.70
2019-02-25T03:54:43.263Z,93.70
2019-02-25T03:57:14.029Z,93.60
2019-02-25T03:59:44.754Z,94.10
2019-02-25T04:02:15.478Z,94.30
2019-02-25T04:04:47.835Z,94.00
2019-02-25T04:07:18.710Z,93.80
2019-02-25T04:09:49.486Z,93.80
2019-02-25T04:12:20.295Z,93.90
2019-02-25T04:14:51.038Z,93.60
2019-02-25T04:17:22.363Z,92.90
2019-02-25T04:19:53.081Z,92.90
2019-02-25T04:22:23.808Z,92.80
2019-02-25T04:24:54.487Z,93.00
2019-02-25T04:27:25.160Z,92.90
2019-02-25T04:29:55.960Z,93.10
2019-02-25T04:32:27.140Z,93.10
2019-02-25T04:34:57.978Z,93.10
2019-02-25T04:37:29.769Z,93.10
2019-02-25T04:40:00.603Z,93.10
2019-02-25T04:42:31.406Z,93.00
2019-02-25T04:45:02.377Z,93.00
2019-02-25T04:47:33.172Z,93.10
2019-02-25T04:50:03.934Z,93.10
2019-02-25T04:52:34.616Z,93.00
2019-02-25T04:55:05.715Z,93.00
2019-02-25T04:57:36.437Z,93.20
2019-02-25T05:00:12.125Z,93.60
2019-02-25T05:02:43.104Z,93.80
2019-02-25T05:05:13.886Z,93.80
2019-02-25T05:07:44.635Z,93.60
2019-02-25T05:10:16.706Z,93.40
2019-02-25T05:12:58.888Z,93.80
2019-02-25T05:15:31.626Z,93.50
2019-02-25T05:18:02.373Z,93.70
2019-02-25T05:20:33.116Z,94.00
2019-02-25T05:23:03.885Z,93.70
2019-02-25T05:25:34.580Z,93.60
2019-02-25T05:28:05.278Z,93.70
2019-02-25T05:30:36.113Z,93.90
2019-02-25T05:33:06.854Z,93.90
2019-02-25T05:35:37.666Z,93.80
2019-02-25T05:38:08.436Z,93.90
2019-02-25T05:40:39.220Z,94.00
2019-02-25T05:43:09.936Z,93.80
2019-02-25T05:45:40.716Z,93.70
2019-02-25T05:48:11.530Z,93.80
2019-02-25T05:50:42.307Z,93.50
2019-02-25T05:53:13.062Z,93.00
2019-02-25T05:55:43.914Z,92.00
2019-02-25T05:58:14.629Z,91.00
2019-02-25T06:00:45.375Z,91.10
2019-02-25T06:03:16.099Z,91.20
2019-02-25T06:05:46.855Z,91.40
2019-02-25T06:08:17.529Z,92.10
2019-02-25T06:10:48.201Z,92.20
2019-02-25T06:13:18.986Z,92.30
2019-02-25T06:15:51.490Z,92.10
2019-02-25T06:18:22.364Z,92.10
2019-02-25T06:20:53.148Z,92.20
2019-02-25T06:23:23.913Z,92.40
2019-02-25T06:25:54.660Z,92.30
2019-02-25T06:28:25.367Z,92.60
2019-02-25T06:30:56.087Z,92.70
2019-02-25T06:33:26.914Z,92.80
2019-02-25T06:35:57.648Z,92.60
2019-02-25T06:38:28.467Z,92.60
2019-02-25T06:40:59.207Z,92.70
2019-02-25T06:43:30.058Z,92.50
2019-02-25T06:46:00.782Z,92.50
2019-02-25T06:48:31.534Z,92.60
2019-02-25T06:51:02.280Z,92.30
2019-02-25T06:53:33.026Z,92.20
2019-02-25T06:56:04.239Z,92.10
2019-02-25T06:58:35.011Z,92.10
2019-02-25T07:01:05.694Z,92.20
2019-02-25T07:03:36.490Z,92.40
2019-02-25T07:06:15.771Z,92.10
2019-02-25T07:08:52.271Z,91.80
2019-02-25T07:11:51.430Z,91.80
2019-02-25T07:14:41.155Z,91.70
2019-02-25T07:17:23.881Z,91.70
2019-02-25T07:20:16.351Z,91.80
2019-02-25T07:23:05.515Z,91.80
2019-02-25T07:25:55.802Z,91.70
2019-02-25T07:28:44.201Z,91.70
2019-02-25T07:31:33.914Z,91.60
2019-02-25T07:34:32.202Z,91.40
2019-02-25T07:37:23.757Z,91.50
2019-02-25T07:40:23.325Z,91.30
2019-02-25T07:43:11.387Z,91.20
2019-02-25T07:45:58.985Z,91.30
2019-02-25T07:48:51.311Z,91.30
2019-02-25T07:51:52.787Z,91.20
2019-02-25T07:54:40.996Z,91.30
2019-02-25T07:57:33.235Z,91.60
2019-02-25T08:00:13.138Z,91.60
2019-02-25T08:02:55.831Z,91.60
2019-02-25T08:05:44.152Z,91.50
2019-02-25T08:08:25.841Z,91.20
2019-02-25T08:11:08.373Z,91.10
2019-02-25T08:13:55.189Z,90.90
2019-02-25T08:16:44.901Z,91.00
2019-02-25T08:19:30.601Z,91.20
2019-02-25T08:22:38.492Z,91.10
2019-02-25T08:25:30.974Z,91.10
2019-02-25T08:28:20.650Z,90.50
2019-02-25T08:31:03.853Z,89.30
2019-02-25T08:33:59.742Z,87.70
2019-02-25T08:37:19.889Z,85.00
2019-02-25T08:40:13.342Z,83.00
2019-02-25T08:42:51.755Z,82.20
2019-02-25T08:45:28.664Z,76.20
2019-02-25T08:48:12.217Z,77.20
2019-02-25T08:50:43.022Z,74.30
2019-02-25T08:53:13.950Z,70.50
2019-02-25T08:55:44.711Z,67.40
2019-02-25T08:58:16.950Z,64.50
2019-02-25T09:00:47.666Z,62.50
2019-02-25T09:03:19.902Z,64.90
2019-02-25T09:05:50.662Z,59.90
2019-02-25T09:08:21.496Z,54.80
2019-02-25T09:10:52.283Z,61.20
2019-02-25T09:13:24.668Z,60.80
2019-02-25T09:15:55.839Z,56.00
2019-02-25T09:18:26.718Z,57.30
2019-02-25T09:20:57.509Z,54.10
2019-02-25T09:23:28.484Z,57.60
2019-02-25T09:25:59.393Z,55.80
2019-02-25T09:28:30.480Z,52.90
2019-02-25T09:31:02.379Z,52.10
2019-02-25T09:33:33.558Z,51.90
2019-02-25T09:36:04.229Z,49.60
2019-02-25T09:38:36.908Z,47.40
2019-02-25T09:41:07.635Z,46.50
2019-02-25T09:43:38.794Z,46.40
2019-02-25T09:46:09.694Z,45.50
2019-02-25T09:48:42.087Z,45.60
2019-02-25T09:51:13.814Z,45.20
2019-02-25T09:53:44.567Z,43.90
2019-02-25T09:56:15.572Z,44.60
2019-02-25T09:58:46.529Z,46.40
2019-02-25T10:01:17.285Z,46.30
2019-02-25T10:03:48.139Z,46.80
2019-02-25T10:06:18.970Z,43.90
2019-02-25T10:08:50.940Z,45.50
2019-02-25T10:11:21.758Z,45.20
2019-02-25T10:13:52.934Z,43.60
2019-02-25T10:16:23.840Z,43.10
2019-02-25T10:18:54.653Z,42.80
2019-02-25T10:21:25.613Z,43.10
2019-02-25T10:23:56.345Z,42.20
2019-02-25T10:26:27.242Z,40.90
2019-02-25T10:28:58.034Z,42.20
2019-02-25T10:31:28.827Z,40.80
2019-02-25T10:33:59.590Z,39.70
2019-02-25T10:36:30.480Z,39.00
2019-02-25T10:39:01.413Z,39.00
2019-02-25T10:41:33.902Z,38.20
2019-02-25T10:44:06.360Z,40.60
2019-02-25T10:46:39.013Z,40.70
2019-02-25T10:49:11.589Z,40.50
2019-02-25T10:51:43.959Z,42.60
2019-02-25T10:54:16.970Z,41.30
2019-02-25T10:56:51.634Z,41.40
2019-02-25T10:59:23.588Z,40.80
2019-02-25T11:01:54.627Z,36.80
2019-02-25T11:04:26.241Z,38.50
2019-02-25T11:06:58.538Z,39.20
2019-02-25T11:09:50.388Z,38.90
2019-02-25T11:12:21.604Z,37.80
2019-02-25T11:14:53.598Z,38.20
2019-02-25T11:17:24.651Z,38.00
2019-02-25T11:19:56.685Z,36.10
2019-02-25T11:22:57.809Z,37.30
2019-02-25T11:25:32.709Z,36.60
2019-02-25T11:28:05.377Z,36.80
2019-02-25T11:30:36.062Z,36.90
2019-02-25T11:33:06.980Z,38.70
2019-02-25T11:35:39.272Z,37.60
2019-02-25T11:38:10.794Z,36.30
2019-02-25T11:40:41.536Z,36.90
2019-02-25T11:43:13.230Z,36.90
2019-02-25T11:45:44.889Z,35.60
2019-02-25T11:48:15.798Z,35.30
2019-02-25T11:50:46.877Z,36.30
2019-02-25T11:53:17.739Z,33.10
2019-02-25T11:55:48.531Z,31.80
2019-02-25T11:58:19.288Z,32.40
2019-02-25T12:00:50.447Z,31.90
2019-02-25T12:03:22.403Z,30.70
2019-02-25T12:05:54.908Z,31.10
2019-02-25T12:08:26.020Z,32.00
2019-02-25T12:10:56.836Z,30.80
2019-02-25T12:13:28.626Z,28.90
2019-02-25T12:15:59.491Z,29.40
2019-02-25T12:18:30.241Z,29.70
2019-02-25T12:21:01.003Z,29.50
2019-02-25T12:23:32.147Z,30.60
2019-02-25T12:26:04.083Z,30.30
2019-02-25T12:28:34.883Z,30.60
2019-02-25T12:31:05.542Z,30.80
2019-02-25T12:33:55.753Z,30.00
2019-02-25T12:36:26.411Z,27.70
2019-02-25T12:38:58.589Z,27.20
2019-02-25T12:41:29.436Z,27.50
2019-02-25T12:44:00.223Z,28.10
2019-02-25T12:46:30.955Z,27.20
2019-02-25T12:49:02.043Z,27.50
2019-02-25T12:51:33.386Z,26.90
2019-02-25T12:54:34.079Z,26.80
2019-02-25T12:57:06.450Z,26.50
2019-02-25T12:59:38.296Z,26.00
2019-02-25T13:02:09.102Z,26.30
2019-02-25T13:04:40.026Z,26.00
2019-02-25T13:07:10.842Z,25.40
2019-02-25T13:09:41.604Z,25.40
2019-02-25T13:12:12.346Z,25.30
2019-02-25T13:14:43.266Z,25.10
2019-02-25T13:17:14.099Z,24.30
2019-02-25T13:19:45.849Z,24.60
2019-02-25T13:22:16.748Z,24.50
2019-02-25T13:24:48.344Z,24.10
2019-02-25T13:27:19.180Z,23.40
2019-02-25T13:29:50.247Z,24.00
2019-02-25T13:32:21.212Z,23.30
2019-02-25T13:34:52.187Z,23.90
2019-02-25T13:37:22.919Z,23.20
2019-02-25T13:39:53.813Z,22.70
2019-02-25T13:42:24.615Z,22.90
2019-02-25T13:44:55.437Z,22.50
2019-02-25T13:47:26.347Z,22.10
2019-02-25T13:49:57.231Z,20.90
2019-02-25T13:52:28.025Z,21.70
2019-02-25T13:54:58.749Z,21.60
2019-02-25T13:57:29.550Z,23.10
2019-02-25T14:00:00.667Z,23.30
2019-02-25T14:02:31.481Z,22.60
2019-02-25T14:05:02.499Z,22.80
2019-02-25T14:07:34.299Z,21.90
2019-02-25T14:10:07.649Z,22.10
2019-02-25T14:12:38.476Z,22.10
2019-02-25T14:15:09.561Z,21.90
2019-02-25T14:17:40.816Z,22.90
2019-02-25T14:20:13.794Z,22.50
2019-02-25T14:22:44.808Z,22.40
2019-02-25T14:25:19.698Z,22.70
2019-02-25T14:27:49.702Z,22.20
2019-02-25T14:30:22.224Z,22.50
2019-02-25T14:32:53.676Z,22.30
2019-02-25T14:35:28.554Z,22.80
2019-02-25T14:38:04.175Z,22.80
2019-02-25T14:40:32.772Z,21.50
2019-02-25T14:43:05.901Z,21.90
2019-02-25T14:45:36.028Z,22.50
2019-02-25T14:48:08.271Z,22.80
2019-02-25T14:50:40.118Z,23.40
2019-02-25T14:53:14.131Z,23.50
2019-02-25T14:55:46.945Z,23.30
2019-02-25T14:58:17.555Z,24.10
2019-02-25T15:00:49.973Z,24.10
2019-02-25T15:03:22.559Z,24.90
2019-02-25T15:05:56.984Z,27.00
2019-02-25T15:08:28.492Z,28.40
2019-02-25T15:11:02.004Z,27.20
2019-02-25T15:13:33.250Z,25.60
2019-02-25T15:16:05.086Z,24.40
2019-02-25T15:18:36.054Z,23.60
2019-02-25T15:21:09.141Z,23.70
2019-02-25T15:23:40.110Z,23.70
2019-02-25T15:26:11.047Z,23.10
2019-02-25T15:28:42.055Z,23.20
2019-02-25T15:31:14.140Z,25.00
2019-02-25T15:33:46.208Z,25.10
2019-02-25T15:36:17.881Z,25.40
2019-02-25T15:38:49.699Z,24.40
2019-02-25T15:41:20.845Z,25.20
2019-02-25T15:43:51.921Z,25.10
2019-02-25T15:46:24.261Z,25.60
2019-02-25T15:48:56.099Z,26.10
2019-02-25T15:51:28.457Z,26.90
2019-02-25T15:53:59.902Z,26.20
2019-02-25T15:56:30.746Z,25.50
2019-02-25T15:59:01.585Z,25.20
2019-02-25T16:01:32.483Z,23.90
2019-02-25T16:04:04.778Z,24.40
2019-02-25T16:06:37.684Z,24.60
2019-02-25T16:09:10.004Z,26.50
2019-02-25T16:11:45.561Z,28.50
2019-02-25T16:14:16.477Z,29.60
2019-02-25T16:16:47.533Z,30.90
2019-02-25T16:19:18.966Z,33.10
2019-02-25T16:21:50.137Z,34.40
2019-02-25T16:24:20.849Z,34.50
2019-02-25T16:26:53.817Z,35.70
2019-02-25T16:29:24.475Z,36.80
2019-02-25T16:31:57.496Z,38.20
2019-02-25T16:34:27.843Z,38.70
2019-02-25T16:37:00.470Z,39.30
2019-02-25T16:39:33.317Z,40.00
2019-02-25T16:42:04.116Z,41.80
2019-02-25T16:44:35.076Z,41.60
2019-02-25T16:47:07.897Z,42.40
2019-02-25T16:49:38.858Z,43.50
2019-02-25T16:52:09.931Z,43.30
2019-02-25T16:54:40.842Z,45.50
2019-02-25T16:57:11.874Z,46.40
2019-02-25T17:07:34.674Z,49.80
2019-02-25T17:10:28.918Z,51.10
2019-02-25T17:13:14.834Z,51.60
2019-02-25T17:15:46.383Z,53.20
2019-02-25T17:18:17.735Z,53.80
2019-02-25T17:20:50.308Z,54.50
2019-02-25T17:23:22.784Z,55.20
2019-02-25T17:25:54.177Z,55.70
2019-02-25T17:28:27.391Z,55.60
2019-02-25T17:30:58.178Z,56.90
2019-02-25T17:33:30.480Z,57.30
2019-02-25T17:36:01.513Z,58.00
2019-02-25T17:38:32.699Z,58.90
2019-02-25T17:41:05.957Z,59.50
2019-02-25T17:43:36.855Z,59.80
2019-02-25T17:46:09.910Z,60.00
2019-02-25T17:48:42.007Z,59.70
2019-02-25T17:51:12.923Z,61.70
2019-02-25T17:53:45.930Z,62.40
2019-02-25T17:56:18.106Z,63.40
2019-02-25T17:58:49.223Z,64.30
2019-02-25T18:01:21.983Z,64.50
2019-02-25T18:03:52.921Z,63.70
2019-02-25T18:06:29.509Z,63.40
2019-02-25T18:08:57.696Z,65.30
2019-02-25T18:11:29.143Z,65.90
2019-02-25T18:14:01.379Z,67.00
2019-02-25T18:16:35.374Z,67.00
2019-02-25T18:19:06.220Z,66.40
2019-02-25T18:21:38.096Z,67.90
2019-02-25T18:24:10.013Z,67.50
2019-02-25T18:26:41.328Z,69.00
2019-02-25T18:29:16.026Z,68.90
2019-02-25T18:31:46.294Z,70.50
2019-02-25T18:34:18.359Z,70.70
2019-02-25T18:36:51.035Z,71.60
2019-02-25T18:39:23.197Z,71.30
2019-02-25T18:41:55.527Z,72.50
2019-02-25T18:44:29.854Z,72.10
2019-02-25T18:47:01.530Z,72.90
2019-02-25T18:49:34.791Z,72.10
2019-02-25T18:52:05.593Z,71.90
2019-02-25T18:54:39.096Z,71.60
2019-02-25T18:57:22.638Z,74.50
2019-02-25T18:59:59.244Z,74.70
2019-02-25T19:02:33.310Z,74.50
2019-02-25T19:05:07.148Z,74.60
2019-02-25T19:07:41.949Z,74.90
2019-02-25T19:10:16.618Z,75.70
2019-02-25T19:12:49.649Z,76.70
2019-02-25T19:15:21.926Z,76.40
2019-02-25T19:17:54.380Z,76.50
2019-02-25T19:20:25.707Z,76.90
2019-02-25T19:23:00.434Z,76.70
2019-02-25T19:25:29.849Z,77.40
2019-02-25T19:28:01.660Z,77.70
2019-02-25T19:30:34.458Z,77.50
2019-02-25T19:33:11.039Z,78.20
2019-02-25T19:35:40.711Z,78.30
2019-02-25T19:38:14.672Z,78.90
2019-02-25T19:40:50.365Z,78.30
2019-02-25T19:43:19.279Z,78.90
2019-02-25T19:45:51.220Z,79.30
2019-02-25T19:48:26.243Z,80.00
2019-02-25T19:50:56.126Z,80.10
2019-02-25T19:53:31.394Z,80.60
2019-02-25T19:56:03.139Z,80.00
2019-02-25T19:58:36.038Z,79.80
2019-02-25T20:01:09.012Z,81.40
2019-02-25T20:03:42.752Z,81.70
2019-02-25T20:06:15.944Z,83.00
2019-02-25T20:08:46.919Z,83.20
2019-02-25T20:11:18.770Z,82.70
2019-02-25T20:13:49.715Z,83.10
2019-02-25T20:16:22.957Z,83.80
2019-02-25T20:18:56.054Z,84.80
2019-02-25T20:21:28.772Z,84.20
2019-02-25T20:23:59.694Z,84.10
2019-02-25T20:26:32.557Z,83.20
2019-02-25T20:29:04.143Z,84.20
2019-02-25T20:31:36.596Z,84.00
2019-02-25T20:34:08.898Z,84.20
2019-02-25T20:36:39.932Z,84.70
2019-02-25T20:39:10.888Z,84.80
2019-02-25T20:41:43.294Z,84.20
2019-02-25T20:44:14.439Z,84.60
2019-02-25T20:46:48.664Z,84.40
2019-02-25T20:49:20.373Z,84.50
2019-02-25T20:51:52.334Z,85.50
2019-02-25T20:54:23.675Z,85.60
2019-02-25T20:56:55.460Z,86.20
2019-02-25T20:59:28.072Z,85.70
2019-02-25T21:01:58.915Z,86.70
2019-02-25T21:04:29.654Z,87.90
2019-02-25T21:07:02.075Z,87.00
2019-02-25T21:09:35.738Z,87.70
2019-02-25T21:12:08.203Z,87.80
2019-02-25T21:14:41.158Z,88.10
2019-02-25T21:17:13.628Z,88.00
2019-02-25T21:19:44.499Z,88.10
2019-02-25T21:22:15.210Z,87.50
2019-02-25T21:24:46.902Z,88.20
2019-02-25T21:27:17.685Z,88.40
2019-02-25T21:29:48.523Z,88.30
2019-02-25T21:32:19.883Z,88.00
2019-02-25T21:34:52.805Z,89.30
2019-02-25T21:37:25.005Z,89.70
2019-02-25T21:39:58.334Z,89.00
2019-02-25T21:42:30.830Z,89.10
2019-02-25T21:45:02.357Z,89.50
2019-02-25T21:47:35.081Z,89.80
2019-02-25T21:50:09.055Z,88.90
2019-02-25T21:52:41.177Z,89.40
2019-02-25T21:55:11.902Z,89.80
2019-02-25T21:57:42.756Z,89.60
2019-02-25T22:00:15.823Z,89.90
2019-02-25T22:02:48.262Z,90.00
2019-02-25T22:05:21.195Z,89.80
2019-02-25T22:07:54.427Z,89.70
2019-02-25T22:10:24.575Z,89.70
2019-02-25T22:12:55.264Z,89.80
2019-02-25T22:15:25.959Z,90.00
2019-02-25T22:17:56.765Z,90.30
2019-02-25T22:20:27.420Z,89.80
2019-02-25T22:22:59.135Z,90.30
2019-02-25T22:25:30.559Z,90.50
2019-02-25T22:28:03.385Z,90.70
2019-02-25T22:30:36.286Z,90.60
2019-02-25T22:33:12.731Z,90.40
2019-02-25T22:35:40.573Z,90.60
2019-02-25T22:38:12.944Z,90.90
2019-02-25T22:40:43.732Z,90.90
2019-02-25T22:43:16.298Z,90.80
2019-02-25T22:45:46.941Z,91.10
2019-02-25T22:48:19.080Z,91.10
2019-02-25T22:50:53.254Z,91.20
2019-02-25T22:53:22.601Z,91.20
2019-02-25T22:55:54.749Z,91.60
2019-02-25T22:58:25.516Z,91.70
2019-02-25T23:01:05.907Z,91.60
2019-02-25T23:03:40.943Z,91.40
2019-02-25T23:06:13.071Z,91.50
2019-02-25T23:08:48.356Z,91.80
2019-02-25T23:11:19.819Z,91.80
2019-02-25T23:13:50.383Z,91.50
2019-02-25T23:16:24.941Z,91.60
2019-02-25T23:18:54.734Z,91.50
2019-02-25T23:21:26.965Z,91.70
2019-02-25T23:23:58.693Z,92.10
2019-02-25T23:26:30.261Z,92.10
2019-02-25T23:29:00.993Z,92.40
2019-02-25T23:31:31.723Z,92.30
2019-02-25T23:34:02.490Z,92.10
2019-02-25T23:36:33.187Z,92.20
2019-02-25T23:39:05.254Z,92.50
2019-02-25T23:41:39.032Z,92.50
2019-02-25T23:44:12.652Z,92.40
2019-02-25T23:46:42.746Z,92.50
2019-02-25T23:49:13.487Z,92.70
2019-02-25T23:51:45.783Z,92.70
2019-02-25T23:54:18.301Z,92.70
2019-02-25T23:56:50.364Z,92.70
2019-02-25T23:59:23.999Z,92.50
